createdAt,value
2022-09-17T00:01:05.323Z,93441.41
2022-09-17T00:03:33.791Z,93435.41
2022-09-17T00:06:06.044Z,93440.69
2022-09-17T00:08:33.138Z,93435.41
2022-09-17T00:11:11.177Z,93427.41
2022-09-17T00:13:38.018Z,93433.22
2022-09-17T00:16:04.763Z,93431.81
2022-09-17T00:18:31.438Z,93434.59
2022-09-17T00:20:58.036Z,93409.72
2022-09-17T00:23:24.570Z,93433.00
2022-09-17T00:25:51.115Z,93421.38
2022-09-17T00:28:18.683Z,93434.34
2022-09-17T00:30:45.934Z,93440.41
2022-09-17T00:33:17.355Z,93420.25
2022-09-17T00:35:44.630Z,93425.44
2022-09-17T00:38:11.640Z,93452.38
2022-09-17T00:40:38.517Z,93412.25
2022-09-17T00:43:10.135Z,93455.16
2022-09-17T00:45:36.561Z,93444.94
2022-09-17T00:48:06.169Z,93456.97
2022-09-17T00:50:37.608Z,93448.31
2022-09-17T00:53:12.247Z,93441.91
2022-09-17T00:55:46.006Z,93454.31
2022-09-17T00:58:15.405Z,93441.53
2022-09-17T01:00:42.431Z,93439.31
2022-09-17T01:03:08.899Z,93423.47
2022-09-17T01:05:45.670Z,93451.56
2022-09-17T01:08:14.993Z,93454.78
2022-09-17T01:11:37.103Z,93452.78
2022-09-17T01:14:15.331Z,93457.19
2022-09-17T01:16:52.624Z,93459.97
2022-09-17T01:19:29.502Z,93459.16
2022-09-17T01:22:45.061Z,93468.00
2022-09-17T01:25:23.030Z,93462.00
2022-09-17T01:28:40.347Z,93464.81
2022-09-17T01:31:10.000Z,93462.81
2022-09-17T01:33:48.774Z,93465.63
2022-09-17T01:36:42.676Z,93465.63
2022-09-17T01:39:27.876Z,93470.00
2022-09-17T01:42:00.641Z,93468.78
2022-09-17T01:44:30.551Z,93449.09
2022-09-17T01:47:21.163Z,93413.78
2022-09-17T01:49:50.567Z,93437.25
2022-09-17T01:52:19.004Z,93434.25
2022-09-17T01:54:53.755Z,93465.00
2022-09-17T01:58:00.754Z,93463.09
2022-09-17T02:00:27.419Z,93462.31
2022-09-17T02:03:01.375Z,93450.66
2022-09-17T02:05:52.227Z,93459.03
2022-09-17T02:08:26.245Z,93449.44
2022-09-17T02:11:08.319Z,93437.00
2022-09-17T02:14:04.771Z,93461.47
2022-09-17T02:16:34.338Z,93464.31
2022-09-17T02:19:21.028Z,93456.50
2022-09-17T02:22:01.094Z,93434.22
2022-09-17T02:24:35.500Z,93465.50
2022-09-17T02:27:23.386Z,93444.47
2022-09-17T02:29:50.451Z,93442.91
2022-09-17T02:32:16.876Z,93428.22
2022-09-17T02:34:43.326Z,93443.22
2022-09-17T02:37:09.873Z,93449.06
2022-09-17T02:39:36.473Z,93453.44
2022-09-17T02:42:08.464Z,93459.84
2022-09-17T02:44:34.785Z,93467.13
2022-09-17T02:47:27.982Z,93465.44
2022-09-17T02:50:08.431Z,93454.56
2022-09-17T02:52:55.042Z,93458.41
2022-09-17T02:55:51.168Z,93457.88
2022-09-17T02:58:22.572Z,93455.44
2022-09-17T03:00:49.350Z,93457.63
2022-09-17T03:03:30.919Z,93442.13
2022-09-17T03:05:58.130Z,93440.13
2022-09-17T03:08:40.737Z,93431.31
2022-09-17T03:11:09.106Z,93453.56
2022-09-17T03:13:36.245Z,93457.84
2022-09-17T03:16:06.281Z,93455.84
2022-09-17T03:18:32.951Z,93441.03
2022-09-17T03:20:59.516Z,93436.63
2022-09-17T03:23:27.870Z,93437.81
2022-09-17T03:25:55.145Z,93447.47
2022-09-17T03:28:21.771Z,93418.59
2022-09-17T03:30:48.196Z,93431.44
2022-09-17T03:33:14.663Z,93438.66
2022-09-17T03:35:45.363Z,93448.25
2022-09-17T03:38:12.196Z,93450.28
2022-09-17T03:40:39.847Z,93439.44
2022-09-17T03:43:06.759Z,93423.19
2022-09-17T03:45:33.184Z,93433.34
2022-09-17T03:47:59.610Z,93423.34
2022-09-17T03:50:26.130Z,93437.22
2022-09-17T03:52:52.515Z,93426.97
2022-09-17T03:55:18.892Z,93450.41
2022-09-17T03:57:45.288Z,93415.97
2022-09-17T04:00:12.763Z,93426.47
2022-09-17T04:02:39.501Z,93415.75
2022-09-17T04:05:06.632Z,93419.22
2022-09-17T04:07:32.991Z,93435.31
2022-09-17T04:09:59.411Z,93437.69
2022-09-17T04:12:25.750Z,93436.47
2022-09-17T04:14:52.115Z,93425.63
2022-09-17T04:17:18.602Z,93422.00
2022-09-17T04:19:45.312Z,93429.34
2022-09-17T04:22:11.697Z,93428.31
2022-09-17T04:24:38.074Z,93444.94
2022-09-17T04:27:04.459Z,93409.16
2022-09-17T04:29:30.973Z,93418.03
2022-09-17T04:31:57.399Z,93410.75
2022-09-17T04:34:23.823Z,93421.22
2022-09-17T04:36:50.290Z,93431.31
2022-09-17T04:39:17.312Z,93439.13
2022-09-17T04:41:43.722Z,93440.19
2022-09-17T04:44:10.096Z,93429.03
2022-09-17T04:46:36.544Z,93433.63
2022-09-17T04:49:02.983Z,93423.22
2022-09-17T04:51:29.340Z,93444.94
2022-09-17T04:53:55.814Z,93444.91
2022-09-17T04:56:22.230Z,93449.38
2022-09-17T04:58:48.626Z,93446.50
2022-09-17T05:01:15.276Z,93470.72
2022-09-17T05:03:41.789Z,93464.16
2022-09-17T05:06:08.147Z,93467.31
2022-09-17T05:08:34.501Z,93454.00
2022-09-17T05:11:00.966Z,93491.00
2022-09-17T05:13:28.447Z,93495.97
2022-09-17T05:15:58.477Z,93502.25
2022-09-17T05:18:25.953Z,93483.31
2022-09-17T05:20:52.471Z,93496.03
2022-09-17T05:23:18.940Z,93493.25
2022-09-17T05:25:45.327Z,93511.25
2022-09-17T05:28:11.936Z,93498.09
2022-09-17T05:30:38.375Z,93508.56
2022-09-17T05:33:07.004Z,93535.38
2022-09-17T05:35:35.916Z,93508.47
2022-09-17T05:38:05.217Z,93530.34
2022-09-17T05:40:33.542Z,93531.88
2022-09-17T05:43:01.327Z,93523.84
2022-09-17T05:45:28.626Z,93540.72
2022-09-17T05:47:59.766Z,93532.31
2022-09-17T05:50:28.804Z,93525.00
2022-09-17T05:52:55.302Z,93538.06
2022-09-17T05:55:23.725Z,93557.78
2022-09-17T05:57:51.131Z,93556.53
2022-09-17T06:00:18.863Z,93559.91
2022-09-17T06:02:45.718Z,93538.44
2022-09-17T06:05:12.545Z,93559.53
2022-09-17T06:07:42.021Z,93559.22
2022-09-17T06:10:09.317Z,93564.75
2022-09-17T06:12:35.767Z,93553.84
2022-09-17T06:15:04.719Z,93566.75
2022-09-17T06:17:34.812Z,93554.53
2022-09-17T06:20:01.648Z,93558.22
2022-09-17T06:22:28.200Z,93571.53
2022-09-17T06:24:54.618Z,93567.50
2022-09-17T06:27:21.150Z,93561.38
2022-09-17T06:29:47.526Z,93560.22
2022-09-17T06:32:17.943Z,93563.44
2022-09-17T06:34:44.383Z,93597.44
2022-09-17T06:37:10.744Z,93587.16
2022-09-17T06:39:37.222Z,93586.63
2022-09-17T06:42:03.782Z,93594.59
2022-09-17T06:44:30.165Z,93615.88
2022-09-17T06:46:56.829Z,93615.44
2022-09-17T06:49:24.188Z,93624.75
2022-09-17T06:51:50.653Z,93606.78
2022-09-17T06:54:20.127Z,93633.88
2022-09-17T06:56:47.570Z,93628.06
2022-09-17T06:59:14.019Z,93613.84
2022-09-17T07:01:47.875Z,93627.44
2022-09-17T07:04:14.366Z,93627.63
2022-09-17T07:06:43.056Z,93620.03
2022-09-17T07:09:11.113Z,93618.53
2022-09-17T07:11:38.970Z,93622.38
2022-09-17T07:14:06.881Z,93592.50
2022-09-17T07:16:35.156Z,93597.25
2022-09-17T07:19:03.048Z,93606.78
2022-09-17T07:21:29.486Z,93590.44
2022-09-17T07:23:55.872Z,93608.50
2022-09-17T07:26:23.255Z,93612.81
2022-09-17T07:28:49.663Z,93613.84
2022-09-17T07:31:16.912Z,93608.03
2022-09-17T07:33:44.277Z,93640.22
2022-09-17T07:36:12.587Z,93639.34
2022-09-17T07:38:39.575Z,93646.06
2022-09-17T07:41:09.791Z,93642.44
2022-09-17T07:43:36.439Z,93629.31
2022-09-17T07:46:04.985Z,93639.06
2022-09-17T07:48:32.130Z,93630.13
2022-09-17T07:51:01.694Z,93600.38
2022-09-17T07:53:28.243Z,93624.16
2022-09-17T07:55:59.875Z,93625.63
2022-09-17T07:58:31.872Z,93620.31
2022-09-17T08:01:08.187Z,93609.75
2022-09-17T08:03:35.416Z,93617.88
2022-09-17T10:42:37.048Z,93622.78
2022-09-17T10:45:03.713Z,93625.22
2022-09-17T10:47:36.348Z,93639.72
2022-09-17T10:50:08.086Z,93643.06
2022-09-17T10:52:49.951Z,93664.75
2022-09-17T10:55:23.714Z,93653.88
2022-09-17T10:58:20.869Z,93690.06
2022-09-17T11:00:59.191Z,93690.84
2022-09-17T11:03:49.205Z,93696.44
2022-09-17T11:06:45.668Z,93694.81
2022-09-17T11:09:42.551Z,93696.22
2022-09-17T11:12:40.742Z,93701.38
2022-09-17T11:15:10.271Z,93705.41
2022-09-17T11:18:00.087Z,93693.84
2022-09-17T11:20:55.918Z,93679.22
2022-09-17T11:23:59.835Z,93680.47
2022-09-17T11:26:39.064Z,93679.38
2022-09-17T11:29:49.428Z,93685.66
2022-09-17T11:32:49.151Z,93689.91
2022-09-17T11:35:22.808Z,93661.66
2022-09-17T11:37:55.556Z,93681.09
2022-09-17T11:40:34.925Z,93652.91
2022-09-17T11:43:15.527Z,93674.22
2022-09-17T11:46:08.655Z,93669.75
2022-09-17T11:48:38.050Z,93679.59
2022-09-17T11:51:25.903Z,93688.88
2022-09-17T11:54:26.126Z,93677.97
2022-09-17T11:57:09.720Z,93674.00
2022-09-17T12:00:12.819Z,93689.63
2022-09-17T12:02:51.440Z,93687.50
2022-09-17T12:05:25.168Z,93651.56
2022-09-17T12:08:04.181Z,93629.97
2022-09-17T12:10:49.844Z,93675.63
2022-09-17T12:13:28.223Z,93648.38
2022-09-17T12:16:15.854Z,93644.41
2022-09-17T12:19:14.344Z,93660.19
2022-09-17T12:21:45.486Z,93656.09
2022-09-17T12:24:28.639Z,93661.06
2022-09-17T12:27:32.850Z,93583.06
2022-09-17T12:30:17.310Z,93656.66
2022-09-17T12:33:16.267Z,93654.66
2022-09-17T12:36:09.128Z,93638.59
2022-09-17T12:39:12.939Z,93654.69
2022-09-17T12:42:12.623Z,93632.56
2022-09-17T12:45:03.279Z,93650.63
2022-09-17T12:47:42.850Z,93634.72
2022-09-17T12:50:26.510Z,93602.19
2022-09-17T12:53:22.067Z,93625.22
2022-09-17T12:56:00.658Z,93628.56
2022-09-17T12:58:46.814Z,93632.41
2022-09-17T13:01:37.151Z,93630.44
2022-09-17T13:05:00.011Z,93630.03
2022-09-17T13:07:55.351Z,93644.91
2022-09-17T13:10:43.749Z,93649.44
2022-09-17T13:13:32.530Z,93634.19
2022-09-17T13:16:18.371Z,93639.41
2022-09-17T13:19:16.585Z,93637.41
2022-09-17T13:22:03.525Z,93642.66
2022-09-17T13:24:32.649Z,93625.16
2022-09-17T13:27:21.222Z,93606.47
2022-09-17T13:29:54.408Z,93650.06
2022-09-17T13:32:48.445Z,93663.31
2022-09-17T13:35:14.805Z,93659.91
2022-09-17T13:37:53.772Z,93649.81
2022-09-17T13:40:34.185Z,93644.50
2022-09-17T13:43:03.692Z,93652.88
2022-09-17T13:45:32.911Z,93624.44
2022-09-17T13:48:07.695Z,93651.06
2022-09-17T13:50:37.839Z,93650.41
2022-09-17T13:53:27.300Z,93654.59
2022-09-17T13:56:03.495Z,93652.50
2022-09-17T13:58:36.837Z,93649.94
2022-09-17T14:01:05.133Z,93684.28
2022-09-17T14:03:46.430Z,93678.84
2022-09-17T14:06:22.015Z,93683.22
2022-09-17T14:08:54.474Z,93665.91
2022-09-17T14:11:23.931Z,93690.16
2022-09-17T14:13:52.226Z,93665.47
2022-09-17T14:16:33.889Z,93673.97
2022-09-17T14:19:22.527Z,93645.66
2022-09-17T14:21:53.265Z,93690.00
2022-09-17T14:24:24.784Z,93687.00
2022-09-17T14:27:08.742Z,93668.28
2022-09-17T14:30:18.984Z,93689.16
2022-09-17T14:32:52.698Z,93675.13
2022-09-17T14:35:43.301Z,93704.09
2022-09-17T14:38:29.915Z,93671.13
2022-09-17T14:41:17.762Z,93692.44
2022-09-17T14:43:52.235Z,93659.47
2022-09-17T14:46:27.720Z,93706.50
2022-09-17T14:48:54.202Z,93683.53
2022-09-17T14:51:20.607Z,93701.66
2022-09-17T14:54:05.758Z,93668.56
2022-09-17T14:56:34.756Z,93678.38
2022-09-17T14:59:01.732Z,93661.53
2022-09-17T15:01:30.861Z,93658.53
2022-09-17T15:04:12.620Z,93709.72
2022-09-17T15:06:40.584Z,93697.25
2022-09-17T15:09:15.757Z,93705.53
2022-09-17T15:11:44.587Z,93703.97
2022-09-17T15:14:18.219Z,93700.97
2022-09-17T15:16:54.489Z,93706.94
2022-09-17T15:19:33.230Z,93700.59
2022-09-17T15:22:05.954Z,93675.69
2022-09-17T15:24:41.578Z,93703.97
2022-09-17T15:27:18.405Z,93683.22
2022-09-17T15:29:49.014Z,93682.53
2022-09-17T15:32:15.480Z,93664.88
2022-09-17T15:34:42.291Z,93650.13
2022-09-17T15:37:20.595Z,93676.00
2022-09-17T15:39:52.965Z,93697.75
2022-09-17T15:42:25.952Z,93699.91
2022-09-17T15:45:31.774Z,93704.47
2022-09-17T15:48:02.024Z,93686.19
2022-09-17T15:50:30.520Z,93681.78
2022-09-17T15:53:09.126Z,93700.59
2022-09-17T15:55:38.720Z,93680.56
2022-09-17T15:58:21.231Z,93695.22
2022-09-17T16:00:47.770Z,93668.34
2022-09-17T16:03:37.144Z,93707.66
2022-09-17T16:06:04.903Z,93689.13
2022-09-17T16:08:35.158Z,93678.44
2022-09-17T16:11:01.549Z,93680.00
2022-09-17T16:13:28.773Z,93694.59
2022-09-17T16:15:55.354Z,93694.81
2022-09-17T16:18:21.719Z,93668.97
2022-09-17T16:20:48.081Z,93703.84
2022-09-17T16:23:14.426Z,93710.81
2022-09-17T16:25:41.346Z,93690.09
2022-09-17T16:28:16.566Z,93745.28
2022-09-17T16:30:48.242Z,93760.06
2022-09-17T16:33:16.686Z,93743.13
2022-09-17T16:35:43.895Z,93695.56
2022-09-17T16:38:11.559Z,93731.38
2022-09-17T16:40:43.363Z,93742.19
2022-09-17T16:43:09.910Z,93736.22
2022-09-17T16:45:36.699Z,93736.34
2022-09-17T16:48:04.281Z,93726.91
2022-09-17T16:50:30.768Z,93732.63
2022-09-17T16:52:59.513Z,93698.94
2022-09-17T16:55:29.368Z,93733.19
2022-09-17T16:57:58.665Z,93756.66
2022-09-17T17:00:26.058Z,93732.47
2022-09-17T17:02:55.986Z,93758.25
2022-09-17T17:05:24.148Z,93759.25
2022-09-17T17:07:50.912Z,93746.19
2022-09-17T17:10:17.743Z,93741.09
2022-09-17T17:12:46.205Z,93729.66
2022-09-17T17:15:13.115Z,93739.69
2022-09-17T17:17:40.540Z,93725.94
2022-09-17T17:20:20.586Z,93737.53
2022-09-17T17:22:51.924Z,93751.22
2022-09-17T17:25:27.039Z,93732.81
2022-09-17T17:27:56.633Z,93762.09
2022-09-17T17:30:24.404Z,93722.06
2022-09-17T17:33:04.198Z,93737.31
2022-09-17T17:35:39.650Z,93751.97
2022-09-17T17:38:06.082Z,93725.19
2022-09-17T17:40:32.663Z,93728.66
2022-09-17T17:42:59.060Z,93723.22
2022-09-17T17:45:25.584Z,93741.06
2022-09-17T17:47:52.064Z,93767.81
2022-09-17T17:50:18.526Z,93707.19
2022-09-17T17:52:48.074Z,93703.22
2022-09-17T17:55:16.099Z,93742.63
2022-09-17T17:57:42.778Z,93782.31
2022-09-17T18:00:11.825Z,93760.72
2022-09-17T18:02:40.461Z,93780.13
2022-09-17T18:05:07.382Z,93764.28
2022-09-17T18:07:33.930Z,93769.19
2022-09-17T18:10:01.499Z,93766.69
2022-09-17T18:12:28.098Z,93765.31
2022-09-17T18:14:54.575Z,93779.09
2022-09-17T18:17:20.999Z,93777.13
2022-09-17T18:19:47.341Z,93779.47
2022-09-17T18:22:14.143Z,93789.38
2022-09-17T18:24:40.504Z,93793.47
2022-09-17T18:27:06.984Z,93783.19
2022-09-17T18:29:33.365Z,93785.28
2022-09-17T18:31:59.788Z,93779.16
2022-09-17T18:34:26.354Z,93801.13
2022-09-17T18:36:52.819Z,93768.03
2022-09-17T18:42:08.950Z,93825.34
2022-09-17T18:44:35.295Z,93821.97
2022-09-17T18:47:01.956Z,93812.81
2022-09-17T18:49:28.391Z,93804.88
2022-09-17T18:51:54.771Z,93811.50
2022-09-17T18:54:21.212Z,93772.16
2022-09-17T18:56:47.643Z,93821.09
2022-09-17T18:59:14.047Z,93814.28
2022-09-17T19:01:40.467Z,93801.44
2022-09-17T19:04:10.037Z,93817.91
2022-09-17T19:06:36.610Z,93834.00
2022-09-17T19:09:04.308Z,93835.69
2022-09-17T19:11:30.737Z,93804.88
2022-09-17T19:13:57.816Z,93826.22
2022-09-17T19:16:24.405Z,93809.91
2022-09-17T19:18:51.405Z,93820.38
2022-09-17T19:21:22.911Z,93828.00
2022-09-17T19:23:51.347Z,93797.00
2022-09-17T19:26:22.891Z,93821.00
2022-09-17T19:28:57.780Z,93824.19
2022-09-17T19:31:24.997Z,93846.34
2022-09-17T19:33:51.697Z,93874.03
2022-09-17T19:36:19.636Z,93844.13
2022-09-17T19:38:46.405Z,93863.13
2022-09-17T19:41:15.644Z,93865.22
2022-09-17T19:43:42.201Z,93827.94
2022-09-17T19:46:11.934Z,93858.25
2022-09-17T19:48:44.450Z,93871.38
2022-09-17T19:51:10.906Z,93860.38
2022-09-17T19:53:37.260Z,93812.38
2022-09-17T19:56:03.671Z,93804.16
2022-09-17T19:58:30.048Z,93835.88
2022-09-17T20:00:57.721Z,93862.94
2022-09-17T20:03:24.901Z,93817.31
2022-09-17T20:06:08.727Z,93850.75
2022-09-17T20:08:39.406Z,93826.72
2022-09-17T20:11:10.788Z,93837.94
2022-09-17T20:13:37.665Z,93844.69
2022-09-17T20:16:13.166Z,93833.16
2022-09-17T20:18:40.147Z,93826.53
2022-09-17T20:21:17.759Z,93857.84
2022-09-17T20:23:44.358Z,93834.94
2022-09-17T20:26:12.526Z,93855.53
2022-09-17T20:28:39.693Z,93832.81
2022-09-17T20:31:27.647Z,93869.75
2022-09-17T20:33:56.651Z,93834.94
2022-09-17T20:36:25.882Z,93844.63
2022-09-17T20:41:40.248Z,93867.25
2022-09-17T20:44:07.680Z,93830.66
2022-09-17T20:46:34.182Z,93842.69
2022-09-17T20:49:00.780Z,93851.47
2022-09-17T20:51:29.764Z,93861.84
2022-09-17T20:54:00.957Z,93858.97
2022-09-17T20:56:30.388Z,93846.34
2022-09-17T20:59:03.970Z,93867.03
2022-09-17T21:01:34.378Z,93847.06
2022-09-17T21:04:02.101Z,93866.97
2022-09-17T21:06:37.218Z,93843.72
2022-09-17T21:09:10.329Z,93867.22
2022-09-17T21:11:36.739Z,93855.47
2022-09-17T21:14:03.562Z,93857.53
2022-09-17T21:16:31.560Z,93874.22
2022-09-17T21:19:00.105Z,93872.78
2022-09-17T21:21:27.323Z,93848.06
2022-09-17T21:23:54.194Z,93867.75
2022-09-17T21:26:22.952Z,93857.19
2022-09-17T21:28:51.557Z,93872.72
2022-09-17T21:31:31.933Z,93891.66
2022-09-17T21:34:02.551Z,93864.84
2022-09-17T21:36:31.799Z,93898.09
2022-09-17T21:39:00.935Z,93895.19
2022-09-17T21:41:27.845Z,93891.25
2022-09-17T21:43:54.859Z,93874.78
2022-09-17T21:46:26.418Z,93894.69
2022-09-17T21:48:58.082Z,93894.16
2022-09-17T21:51:42.015Z,93877.66
2022-09-17T21:54:17.720Z,93889.13
2022-09-17T21:56:45.507Z,93891.09
2022-09-17T21:59:14.235Z,93886.06
2022-09-17T22:01:43.940Z,93900.41
2022-09-17T22:04:13.039Z,93885.31
2022-09-17T22:06:41.323Z,93902.59
2022-09-17T22:09:14.850Z,93905.34
2022-09-17T22:11:41.364Z,93889.31
2022-09-17T22:14:13.753Z,93879.63
2022-09-17T22:16:45.041Z,93922.94
2022-09-17T22:19:13.626Z,93897.09
2022-09-17T22:21:42.621Z,93902.22
2022-09-17T22:24:10.708Z,93891.25
2022-09-17T22:26:39.652Z,93913.16
2022-09-17T22:29:09.249Z,93924.81
2022-09-17T22:31:36.180Z,93876.56
2022-09-17T22:34:08.211Z,93901.13
2022-09-17T22:36:35.083Z,93914.03
2022-09-17T22:39:01.558Z,93904.25
2022-09-17T22:41:30.281Z,93911.84
2022-09-17T22:44:02.293Z,93914.41
2022-09-17T22:46:30.887Z,93900.03
2022-09-17T22:48:58.075Z,93868.75
2022-09-17T22:51:25.913Z,93892.41
2022-09-17T22:53:52.341Z,93909.56
2022-09-17T22:56:21.556Z,93914.59
2022-09-17T22:58:48.268Z,93903.28
2022-09-17T23:01:23.071Z,93915.31
2022-09-17T23:03:52.362Z,93938.66
2022-09-17T23:06:24.850Z,93938.97
2022-09-17T23:08:52.256Z,93938.88
2022-09-17T23:11:33.428Z,93935.41
2022-09-17T23:14:02.889Z,93911.16
2022-09-17T23:16:35.445Z,93914.22
2022-09-17T23:19:01.820Z,93917.47
2022-09-17T23:21:28.203Z,93916.72
2022-09-17T23:23:54.866Z,93925.81
2022-09-17T23:26:23.647Z,93939.16
2022-09-17T23:28:51.265Z,93942.59
2022-09-17T23:31:23.021Z,93928.75
2022-09-17T23:33:50.322Z,93939.69
2022-09-17T23:36:19.830Z,93939.13
2022-09-17T23:38:47.735Z,93947.25
2022-09-17T23:41:22.192Z,93936.06
2022-09-17T23:43:51.640Z,93937.81
2022-09-17T23:46:19.185Z,93939.88
2022-09-17T23:48:46.465Z,93933.56
2022-09-17T23:51:12.994Z,93919.06
2022-09-17T23:53:39.535Z,93916.72
2022-09-17T23:56:12.426Z,93926.22
2022-09-17T23:58:38.909Z,93933.47
